Time;durP1;ratioP1;P1;durP2;ratioP2;P2;SDS_P1;SDS_P2;PMS_P1;PMS_P2;Temp;Humidity;BMP_temperature;BMP_pressure;BME280_temperature;BME280_humidity;BME280_pressure;Samples;Min_cycle;Max_cycle;Signal;HPM_P1;HPM_P2
2024/02/10 00:00:16;;;;;;;0.40;0.40;;;7.40;99.90;;;;;;6131971;23;20024;-80
2024/02/10 00:02:43;;;;;;;0.40;0.40;;;7.40;99.90;;;;;;6182500;23;20017;-81
2024/02/10 00:05:11;;;;;;;0.40;0.40;;;7.40;99.90;;;;;;6132230;23;20377;-82
2024/02/10 00:07:37;;;;;;;0.30;0.30;;;7.40;99.90;;;;;;6154173;23;20096;-80
2024/02/10 00:10:04;;;;;;;0.50;0.50;;;7.40;99.90;;;;;;6155669;23;20020;-81
2024/02/10 00:12:31;;;;;;;0.30;0.30;;;7.40;99.90;;;;;;6155186;23;20017;-81
2024/02/10 00:14:57;;;;;;;0.50;0.50;;;7.40;99.90;;;;;;6156269;23;20009;-81
2024/02/10 00:17:26;;;;;;;0.40;0.40;;;7.40;99.90;;;;;;6181567;23;20017;-81
2024/02/10 00:19:55;;;;;;;0.57;0.57;;;7.40;99.90;;;;;;6155742;23;20013;-81
2024/02/10 00:22:24;;;;;;;0.47;0.47;;;7.30;99.90;;;;;;6155990;23;20072;-80
2024/02/10 00:24:50;;;;;;;;;;;7.30;99.90;;;;;;6130935;23;20076;-81
2024/02/10 00:27:17;;;;;;;0.40;0.40;;;7.30;99.90;;;;;;6155916;23;19986;-81
2024/02/10 00:29:46;;;;;;;0.32;0.32;;;7.20;99.90;;;;;;6155853;23;20055;-80
2024/02/10 00:32:12;;;;;;;0.30;0.30;;;7.20;99.90;;;;;;6156639;23;20408;-81
2024/02/10 00:34:41;;;;;;;0.50;0.50;;;7.20;99.90;;;;;;6156140;23;20092;-81
2024/02/10 00:37:07;;;;;;;0.40;0.40;;;7.10;99.90;;;;;;6155575;23;20055;-81
2024/02/10 00:39:35;;;;;;;0.50;0.50;;;7.20;99.90;;;;;;6107004;23;20021;-82
2024/02/10 00:42:01;;;;;;;0.40;0.40;;;7.10;99.90;;;;;;6155527;23;20088;-81
2024/02/10 00:44:30;;;;;;;0.40;0.40;;;7.20;99.90;;;;;;6182978;23;20084;-81
2024/02/10 00:47:00;;;;;;;0.40;0.40;;;7.20;99.90;;;;;;6158847;23;20048;-80
2024/02/10 00:49:44;;;;;;;1.07;0.97;;;7.20;99.90;;;;;;6157159;23;20554;-81
2024/02/10 00:52:16;;;;;;;0.50;0.50;;;7.20;99.90;;;;;;6158391;23;20013;-81
2024/02/10 00:54:42;;;;;;;0.50;0.50;;;7.30;99.90;;;;;;6157925;23;20064;-80
2024/02/10 00:57:10;;;;;;;0.45;0.45;;;7.30;99.90;;;;;;6184478;23;20020;-81
2024/02/10 00:59:40;;;;;;;0.50;0.50;;;7.40;99.90;;;;;;6183746;23;20073;-81
2024/02/10 01:02:17;;;;;;;0.50;0.50;;;7.40;99.90;;;;;;6135911;23;20468;-81
2024/02/10 01:04:47;;;;;;;0.50;0.50;;;7.30;99.90;;;;;;6157504;23;20017;-82
2024/02/10 01:07:17;;;;;;;0.35;0.35;;;7.60;99.90;;;;;;6159078;23;20481;-81
2024/02/10 01:09:59;;;;;;;0.60;0.60;;;7.30;99.90;;;;;;6183321;23;20476;-81
2024/02/10 01:12:25;;;;;;;0.50;0.50;;;7.30;99.90;;;;;;6133747;23;20252;-81
2024/02/10 01:14:54;;;;;;;0.47;0.47;;;7.30;99.90;;;;;;6158631;23;20024;-81
2024/02/10 01:17:20;;;;;;;0.47;0.47;;;7.40;99.90;;;;;;6161376;23;20021;-81
2024/02/10 01:19:51;;;;;;;1.75;0.50;;;7.40;99.90;;;;;;6160193;23;20349;-81
2024/02/10 01:22:22;;;;;;;0.50;0.50;;;7.40;99.90;;;;;;6159629;23;20471;-80
2024/02/10 01:24:56;;;;;;;0.50;0.50;;;7.40;99.90;;;;;;6160139;23;20403;-80
2024/02/10 01:27:26;;;;;;;0.50;0.50;;;7.40;99.90;;;;;;6159424;23;20056;-81
2024/02/10 01:30:01;;;;;;;0.45;0.45;;;7.50;99.90;;;;;;6158887;23;20071;-80
2024/02/10 01:32:27;;;;;;;0.40;0.40;;;7.50;99.90;;;;;;6161373;23;20017;-81
2024/02/10 01:34:54;;;;;;;0.60;0.60;;;7.90;99.90;;;;;;6184401;23;20036;-81
2024/02/10 01:37:26;;;;;;;0.50;0.50;;;7.60;99.90;;;;;;6161177;23;20024;-81
2024/02/10 01:39:53;;;;;;;0.43;0.43;;;7.70;99.90;;;;;;6183535;23;20017;-81
2024/02/10 01:42:20;;;;;;;0.40;0.40;;;7.80;99.90;;;;;;6159214;23;20013;-81
2024/02/10 01:44:46;;;;;;;0.45;0.45;;;7.90;99.90;;;;;;6158427;23;20017;-80
2024/02/10 01:47:14;;;;;;;1.02;1.02;;;8.00;99.90;;;;;;6134537;23;20027;-81
2024/02/10 01:49:41;;;;;;;0.70;0.70;;;8.10;99.90;;;;;;6157952;23;20025;-79
2024/02/10 01:52:08;;;;;;;0.30;0.30;;;8.10;99.90;;;;;;6158808;23;20022;-81
2024/02/10 01:54:36;;;;;;;0.90;0.80;;;8.20;99.90;;;;;;6185211;23;20024;-80
2024/02/10 01:57:05;;;;;;;0.43;0.43;;;8.20;99.90;;;;;;6156996;23;20302;-82
2024/02/10 01:59:37;;;;;;;0.50;0.50;;;8.30;99.90;;;;;;6157314;23;20017;-80
2024/02/10 02:02:04;;;;;;;0.70;0.70;;;8.30;99.90;;;;;;6159553;22;20074;-86
2024/02/10 02:04:35;;;;;;;0.47;0.47;;;8.40;99.90;;;;;;6192745;23;20028;-79
2024/02/10 02:07:08;;;;;;;0.50;0.50;;;8.60;99.90;;;;;;6243912;23;20072;-80
2024/02/10 02:09:35;;;;;;;0.77;0.77;;;8.50;99.90;;;;;;6245615;23;20015;-80
2024/02/10 02:12:07;;;;;;;0.30;0.30;;;8.50;99.90;;;;;;6192676;23;20020;-80
2024/02/10 02:14:36;;;;;;;2.20;2.10;;;8.50;99.90;;;;;;6217015;23;20075;-80
2024/02/10 02:17:04;;;;;;;0.30;0.30;;;8.50;99.90;;;;;;6217000;23;20024;-80
2024/02/10 02:19:32;;;;;;;0.43;0.43;;;8.50;99.90;;;;;;6167512;23;20012;-79
2024/02/10 02:22:01;;;;;;;0.43;0.43;;;8.50;99.90;;;;;;6217186;23;20117;-80
2024/02/10 02:24:30;;;;;;;0.32;0.32;;;8.40;99.90;;;;;;6242349;23;20012;-80
2024/02/10 02:26:59;;;;;;;0.32;0.32;;;8.30;99.90;;;;;;6241833;23;20023;-81
2024/02/10 02:29:25;;;;;;;0.60;0.60;;;8.30;99.90;;;;;;6217116;23;20047;-81
2024/02/10 02:32:00;;;;;;;0.40;0.40;;;8.30;99.90;;;;;;6216613;23;20478;-81
2024/02/10 02:34:33;;;;;;;0.40;0.40;;;8.30;99.90;;;;;;6242331;23;20023;-81
2024/02/10 02:37:06;;;;;;;0.40;0.40;;;8.20;99.90;;;;;;6217286;23;20012;-81
2024/02/10 02:39:33;;;;;;;0.52;0.52;;;8.20;99.90;;;;;;6242119;23;20024;-80
2024/02/10 02:42:02;;;;;;;0.40;0.40;;;8.10;99.90;;;;;;6216401;23;20039;-80
2024/02/10 02:44:28;;;;;;;0.32;0.32;;;8.10;99.90;;;;;;6242071;23;20012;-81
2024/02/10 02:46:59;;;;;;;0.40;0.40;;;8.10;99.90;;;;;;6241484;23;20470;-80
2024/02/10 02:49:25;;;;;;;0.30;0.30;;;8.00;99.90;;;;;;6242771;23;20071;-82
2024/02/10 02:51:51;;;;;;;0.40;0.40;;;8.00;99.90;;;;;;6241857;23;20012;-81
2024/02/10 02:54:18;;;;;;;0.50;0.50;;;8.10;99.90;;;;;;6216824;23;20016;-80
2024/02/10 02:56:45;;;;;;;0.50;0.50;;;7.90;99.90;;;;;;6242989;22;20063;-81
2024/02/10 02:59:13;;;;;;;0.50;0.50;;;7.80;99.90;;;;;;6243528;22;20019;-80
2024/02/10 03:01:40;;;;;;;0.47;0.47;;;7.80;99.90;;;;;;6216404;23;20019;-80
2024/02/10 03:04:06;;;;;;;0.70;0.70;;;7.30;99.90;;;;;;6219052;22;20455;-80
2024/02/10 03:06:32;;;;;;;0.40;0.40;;;7.60;99.90;;;;;;6196538;22;20020;-80
2024/02/10 03:08:58;;;;;;;0.40;0.40;;;7.50;99.90;;;;;;6221140;22;20090;-80
2024/02/10 03:11:26;;;;;;;0.40;0.40;;;7.50;99.90;;;;;;6274353;22;20454;-80
2024/02/10 03:13:52;;;;;;;0.40;0.40;;;7.40;99.90;;;;;;6221421;22;20019;-80
2024/02/10 03:16:18;;;;;;;;;;;7.30;99.90;;;;;;6247093;22;20045;-81
2024/02/10 03:18:47;;;;;;;0.40;0.40;;;7.30;99.90;;;;;;6221156;22;19915;-80
2024/02/10 03:21:14;;;;;;;0.40;0.40;;;7.30;99.90;;;;;;6246641;22;20051;-80
2024/02/10 03:23:41;;;;;;;0.40;0.40;;;7.20;99.90;;;;;;6196383;22;20047;-80
2024/02/10 03:26:07;;;;;;;0.40;0.40;;;7.00;99.90;;;;;;6246423;22;20019;-80
2024/02/10 03:28:35;;;;;;;;;;;7.10;99.90;;;;;;6221716;22;20015;-80
2024/02/10 03:31:02;;;;;;;0.50;0.50;;;7.10;99.90;;;;;;6273283;22;19915;-79
2024/02/10 03:33:33;;;;;;;0.40;0.40;;;6.90;99.90;;;;;;6273660;22;20045;-80
2024/02/10 03:35:59;;;;;;;0.80;0.60;;;6.80;99.90;;;;;;6221189;22;20030;-80
2024/02/10 03:38:25;;;;;;;0.50;0.50;;;6.70;99.90;;;;;;6246167;22;20023;-80
2024/02/10 03:40:51;;;;;;;0.40;0.40;;;6.70;99.90;;;;;;6246607;22;20372;-79
2024/02/10 03:43:21;;;;;;;0.47;0.47;;;6.70;99.90;;;;;;6221439;22;20011;-80
2024/02/10 03:45:47;;;;;;;0.60;0.60;;;6.60;99.90;;;;;;6221677;22;20045;-80
2024/02/10 03:48:12;;;;;;;0.50;0.50;;;6.60;99.90;;;;;;6221299;22;20393;-80
2024/02/10 03:50:38;;;;;;;0.40;0.40;;;6.60;99.90;;;;;;6221559;22;20019;-80
2024/02/10 03:53:04;;;;;;;0.63;0.63;;;6.60;99.90;;;;;;6246465;22;20020;-81
2024/02/10 03:55:30;;;;;;;0.40;0.40;;;7.60;99.90;;;;;;6274204;22;20353;-79
2024/02/10 03:58:01;;;;;;;0.45;0.45;;;6.70;99.90;;;;;;6222166;22;20016;-80
2024/02/10 04:00:28;;;;;;;0.60;0.60;;;6.70;99.90;;;;;;6276867;22;20012;-81
2024/02/10 04:02:56;;;;;;;0.45;0.45;;;6.70;99.90;;;;;;6250702;22;20087;-80
2024/02/10 04:05:22;;;;;;;0.50;0.50;;;6.50;99.90;;;;;;6250413;22;20458;-80
2024/02/10 04:07:52;;;;;;;0.50;0.50;;;6.70;99.90;;;;;;6247547;22;20011;-80
2024/02/10 04:10:19;;;;;;;0.50;0.50;;;6.70;99.90;;;;;;6221912;22;20015;-80
2024/02/10 04:12:46;;;;;;;0.50;0.50;;;6.70;99.90;;;;;;6246831;22;20079;-80
2024/02/10 04:15:12;;;;;;;0.40;0.40;;;6.80;99.90;;;;;;6220392;22;20015;-79
2024/02/10 04:17:38;;;;;;;;;;;6.80;99.90;;;;;;6220164;22;20012;-80
2024/02/10 04:20:09;;;;;;;0.40;0.40;;;6.80;99.90;;;;;;6219423;22;19989;-80
2024/02/10 04:22:38;;;;;;;0.50;0.50;;;6.80;99.90;;;;;;6219969;22;20015;-79
2024/02/10 04:25:12;;;;;;;0.50;0.50;;;6.90;99.90;;;;;;6244523;22;20050;-79
2024/02/10 04:27:38;;;;;;;0.60;0.60;;;6.90;99.90;;;;;;6245247;22;20053;-80
2024/02/10 04:30:13;;;;;;;;;;;6.90;99.90;;;;;;6246096;22;20050;-80
2024/02/10 04:32:46;;;;;;;0.40;0.40;;;6.90;99.90;;;;;;6246209;22;19915;-80
2024/02/10 04:35:13;;;;;;;0.40;0.40;;;6.90;99.90;;;;;;6245635;22;20023;-79
2024/02/10 04:37:48;;;;;;;0.50;0.50;;;6.90;99.90;;;;;;6246032;22;20019;-80
2024/02/10 04:40:17;;;;;;;0.35;0.35;;;6.90;99.90;;;;;;6272902;22;20012;-80
2024/02/10 04:42:43;;;;;;;0.50;0.50;;;6.90;99.90;;;;;;6220795;22;20008;-80
2024/02/10 04:45:09;;;;;;;0.50;0.50;;;6.90;99.90;;;;;;6245376;22;20119;-80
2024/02/10 04:47:35;;;;;;;0.65;0.65;;;6.90;99.90;;;;;;6246282;22;20499;-80
2024/02/10 04:50:01;;;;;;;0.52;0.52;;;6.80;99.90;;;;;;6195727;22;20045;-79
2024/02/10 04:52:27;;;;;;;0.43;0.43;;;6.80;99.90;;;;;;6222950;22;20015;-80
2024/02/10 04:54:53;;;;;;;0.50;0.50;;;6.80;99.90;;;;;;6222979;22;20019;-80
2024/02/10 04:57:28;;;;;;;0.40;0.40;;;6.80;99.90;;;;;;6248865;22;20377;-80
2024/02/10 04:59:55;;;;;;;0.40;0.40;;;6.80;99.90;;;;;;6276233;22;20016;-81
2024/02/10 05:02:23;;;;;;;0.40;0.40;;;6.70;99.90;;;;;;6247834;22;20012;-79
2024/02/10 05:04:51;;;;;;;0.40;0.40;;;6.70;99.90;;;;;;6247517;22;20016;-81
2024/02/10 05:07:18;;;;;;;0.50;0.50;;;6.70;99.90;;;;;;6197974;22;20026;-80
2024/02/10 05:09:44;;;;;;;0.50;0.50;;;6.70;99.90;;;;;;6248384;22;20374;-79
2024/02/10 05:12:09;;;;;;;0.70;0.70;;;7.00;99.90;;;;;;6223030;22;20015;-80
2024/02/10 05:14:35;;;;;;;0.40;0.40;;;6.70;99.90;;;;;;6248679;22;20019;-80
2024/02/10 05:17:01;;;;;;;0.43;0.43;;;6.90;99.90;;;;;;6248491;22;20015;-81
2024/02/10 05:19:28;;;;;;;0.35;0.35;;;6.80;99.90;;;;;;6274792;22;20012;-81
2024/02/10 05:21:56;;;;;;;;;;;6.80;99.90;;;;;;6275825;22;20012;-81
2024/02/10 05:24:24;;;;;;;0.50;0.50;;;6.80;99.90;;;;;;6248034;22;19921;-81
2024/02/10 05:26:50;;;;;;;0.40;0.40;;;7.10;99.90;;;;;;6247555;22;20041;-81
2024/02/10 05:29:18;;;;;;;0.50;0.50;;;6.80;99.90;;;;;;6223226;22;20094;-81
2024/02/10 05:31:47;;;;;;;0.45;0.45;;;6.80;99.90;;;;;;6247693;22;20090;-81
2024/02/10 05:34:14;;;;;;;0.30;0.30;;;6.80;99.90;;;;;;6247666;22;20098;-81
2024/02/10 05:36:40;;;;;;;0.40;0.40;;;6.80;99.90;;;;;;6222332;22;20439;-81
2024/02/10 05:39:09;;;;;;;0.40;0.40;;;6.80;99.90;;;;;;6248324;22;20026;-82
2024/02/10 05:41:36;;;;;;;0.50;0.50;;;6.80;99.90;;;;;;6197771;22;20055;-81
2024/02/10 05:44:02;;;;;;;0.65;0.65;;;6.80;99.90;;;;;;6248266;22;20095;-81
2024/02/10 05:46:28;;;;;;;0.50;0.50;;;6.90;99.90;;;;;;6247371;22;20532;-81
2024/02/10 05:48:54;;;;;;;0.38;0.38;;;6.90;99.90;;;;;;6222615;22;20023;-80
2024/02/10 05:51:23;;;;;;;0.40;0.40;;;6.90;99.90;;;;;;6247882;22;20381;-81
2024/02/10 05:53:49;;;;;;;0.35;0.35;;;6.90;99.90;;;;;;6222870;22;20161;-80
2024/02/10 05:56:16;;;;;;;0.40;0.40;;;7.00;99.90;;;;;;6247038;22;20481;-81
2024/02/10 05:58:43;;;;;;;0.50;0.50;;;7.00;99.90;;;;;;6222386;22;20016;-81
2024/02/10 06:01:13;;;;;;;0.50;0.50;;;7.00;99.90;;;;;;6274564;22;20091;-80
2024/02/10 06:03:42;;;;;;;0.60;0.60;;;7.00;99.90;;;;;;6247520;22;20459;-81
2024/02/10 06:06:08;;;;;;;0.50;0.50;;;6.90;99.90;;;;;;6274642;22;20020;-80
2024/02/10 06:08:35;;;;;;;;;;;6.90;99.90;;;;;;6247995;22;20019;-80
2024/02/10 06:11:02;;;;;;;0.30;0.30;;;6.90;99.90;;;;;;6247723;22;19915;-80
2024/02/10 06:13:29;;;;;;;0.40;0.40;;;6.90;99.90;;;;;;6222040;22;20069;-80
2024/02/10 06:15:55;;;;;;;0.43;0.43;;;6.90;99.90;;;;;;6222641;22;20022;-80
2024/02/10 06:18:29;;;;;;;;;;;6.90;99.90;;;;;;6221645;22;20012;-80
2024/02/10 06:20:57;;;;;;;0.40;0.40;;;6.90;99.90;;;;;;6247165;22;19961;-80
2024/02/10 06:23:25;;;;;;;0.45;0.45;;;6.90;99.90;;;;;;6222074;22;20023;-80
2024/02/10 06:25:54;;;;;;;0.50;0.50;;;6.90;99.90;;;;;;6222933;22;20057;-80
2024/02/10 06:28:21;;;;;;;0.40;0.40;;;7.10;99.90;;;;;;6246990;22;20355;-81
2024/02/10 06:30:51;;;;;;;0.77;0.77;;;6.90;99.90;;;;;;6274142;22;20024;-81
2024/02/10 06:33:19;;;;;;;0.68;0.68;;;7.00;99.90;;;;;;6221985;22;20007;-80
2024/02/10 06:35:48;;;;;;;0.50;0.50;;;7.00;99.90;;;;;;6247644;22;20406;-81
2024/02/10 06:38:15;;;;;;;0.40;0.40;;;7.00;99.90;;;;;;6222892;22;20019;-80
2024/02/10 06:40:41;;;;;;;0.50;0.50;;;7.10;99.90;;;;;;6275703;22;20015;-80
2024/02/10 06:43:12;;;;;;;0.77;0.77;;;7.10;99.90;;;;;;6274162;22;20451;-80
2024/02/10 06:45:39;;;;;;;0.57;0.57;;;7.20;99.90;;;;;;6247701;22;20011;-80
2024/02/10 06:48:09;;;;;;;0.50;0.50;;;7.20;99.90;;;;;;6247905;22;20080;-80
2024/02/10 06:50:36;;;;;;;0.52;0.52;;;7.10;99.90;;;;;;6247280;22;20343;-80
2024/02/10 06:53:03;;;;;;;0.30;0.30;;;7.10;99.90;;;;;;6223285;22;20023;-80
2024/02/10 06:55:29;;;;;;;0.40;0.40;;;7.10;99.90;;;;;;6248940;22;20022;-80
2024/02/10 06:57:55;;;;;;;0.60;0.60;;;7.10;99.90;;;;;;6247615;22;20019;-80
2024/02/10 07:00:22;;;;;;;0.50;0.50;;;7.10;99.90;;;;;;6197801;22;20016;-80
2024/02/10 07:02:49;;;;;;;1.20;0.60;;;7.10;99.90;;;;;;6224068;22;20015;-80
2024/02/10 07:05:16;;;;;;;0.30;0.30;;;7.20;99.90;;;;;;6275729;22;20350;-81
2024/02/10 07:07:43;;;;;;;1.05;1.05;;;7.20;99.90;;;;;;6248974;22;20016;-81
2024/02/10 07:10:20;;;;;;;0.50;0.50;;;7.20;99.90;;;;;;6275768;22;20011;-80
2024/02/10 07:12:47;;;;;;;0.50;0.50;;;7.20;99.90;;;;;;6224172;22;20039;-80
2024/02/10 07:15:18;;;;;;;0.50;0.50;;;7.30;99.90;;;;;;6249266;22;20012;-80
2024/02/10 07:17:47;;;;;;;0.40;0.40;;;7.30;99.90;;;;;;6249321;22;20429;-80
2024/02/10 07:20:23;;;;;;;0.50;0.50;;;7.30;99.90;;;;;;6249636;22;20354;-81
2024/02/10 07:22:58;;;;;;;0.43;0.43;;;7.40;99.90;;;;;;6249942;22;20114;-80
2024/02/10 07:25:28;;;;;;;0.50;0.50;;;7.60;99.90;;;;;;6251087;22;20022;-79
2024/02/10 07:28:00;;;;;;;0.40;0.40;;;8.60;99.90;;;;;;6225269;22;20050;-81
2024/02/10 07:30:27;;;;;;;0.40;0.40;;;7.50;99.90;;;;;;6250713;22;20015;-80
2024/02/10 07:32:53;;;;;;;0.60;0.60;;;7.50;99.90;;;;;;6224515;22;20019;-80
2024/02/10 07:35:22;;;;;;;0.50;0.50;;;7.50;99.90;;;;;;6250225;22;20063;-80
2024/02/10 07:37:49;;;;;;;0.60;0.60;;;7.60;99.90;;;;;;6251694;22;20086;-80
2024/02/10 07:40:15;;;;;;;0.50;0.50;;;7.60;99.90;;;;;;6250523;22;20023;-81
2024/02/10 07:42:41;;;;;;;0.30;0.30;;;7.60;99.90;;;;;;6249860;22;20037;-80
2024/02/10 07:45:07;;;;;;;0.45;0.45;;;7.60;99.90;;;;;;6249233;22;20443;-80
2024/02/10 07:47:33;;;;;;;0.35;0.35;;;7.70;99.90;;;;;;6276646;22;20019;-80
2024/02/10 07:50:00;;;;;;;0.30;0.30;;;7.70;99.90;;;;;;6224607;22;20024;-81
2024/02/10 07:52:30;;;;;;;0.30;0.30;;;7.80;99.90;;;;;;6223327;22;20023;-81
2024/02/10 07:54:58;;;;;;;0.57;0.57;;;8.10;99.90;;;;;;6276354;22;20015;-80
2024/02/10 07:57:25;;;;;;;0.40;0.40;;;7.90;99.90;;;;;;6276645;22;20012;-80
2024/02/10 07:59:55;;;;;;;0.40;0.40;;;8.00;99.90;;;;;;6276775;22;20015;-80
2024/02/10 08:02:23;;;;;;;0.32;0.32;;;8.00;99.90;;;;;;6223978;22;20011;-80
2024/02/10 08:04:51;;;;;;;0.32;0.32;;;8.00;99.90;;;;;;6282484;22;20098;-81
2024/02/10 08:07:18;;;;;;;0.40;0.40;;;8.10;99.90;;;;;;6256964;22;20095;-82
2024/02/10 08:09:45;;;;;;;0.40;0.40;;;8.20;99.90;;;;;;6254092;22;20019;-83
2024/02/10 08:12:17;;;;;;;0.45;0.45;;;8.20;99.90;;;;;;6282916;22;20031;-83
2024/02/10 08:14:47;;;;;;;0.40;0.40;;;8.30;99.90;;;;;;6282268;22;20026;-83
2024/02/10 08:17:13;;;;;;;0.40;0.40;;;8.40;99.90;;;;;;6282964;22;20022;-82
2024/02/10 08:19:39;;;;;;;0.52;0.52;;;8.50;99.90;;;;;;6256942;22;20011;-83
2024/02/10 08:22:09;;;;;;;0.40;0.40;;;8.60;99.90;;;;;;6283745;22;20008;-82
2024/02/10 08:24:35;;;;;;;0.60;0.60;;;8.70;99.90;;;;;;6281890;22;20083;-82
2024/02/10 08:27:01;;;;;;;0.40;0.40;;;8.70;99.90;;;;;;6256189;22;20015;-81
2024/02/10 08:29:33;;;;;;;0.47;0.47;;;8.80;99.90;;;;;;6283523;22;20016;-82
2024/02/10 08:32:03;;;;;;;0.30;0.30;;;8.90;99.90;;;;;;6230816;22;20011;-82
2024/02/10 08:34:35;;;;;;;0.30;0.30;;;9.10;99.90;;;;;;6230992;22;20075;-83
2024/02/10 08:37:04;;;;;;;0.50;0.50;;;9.20;99.90;;;;;;6257009;22;20019;-81
2024/02/10 08:39:31;;;;;;;0.30;0.30;;;9.30;99.90;;;;;;6286207;22;20482;-84
2024/02/10 08:41:59;;;;;;;0.70;0.70;;;9.40;99.90;;;;;;6229924;22;20012;-82
2024/02/10 08:44:27;;;;;;;0.47;0.47;;;9.40;99.90;;;;;;6254516;22;20012;-82
2024/02/10 08:46:52;;;;;;;0.63;0.63;;;9.50;99.90;;;;;;6256298;22;20034;-82
2024/02/10 08:49:18;;;;;;;0.80;0.52;;;9.50;99.90;;;;;;6229439;22;20597;-83
2024/02/10 08:51:54;;;;;;;0.45;0.45;;;9.50;99.90;;;;;;6256167;22;20027;-82
2024/02/10 08:54:19;;;;;;;0.30;0.30;;;9.50;99.90;;;;;;6283829;22;20069;-82
2024/02/10 08:56:45;;;;;;;0.30;0.30;;;9.50;99.90;;;;;;6283772;22;20035;-83
2024/02/10 08:59:12;;;;;;;0.47;0.47;;;9.50;99.90;;;;;;6256231;22;20650;-82
2024/02/10 09:01:42;;;;;;;0.60;0.60;;;9.50;99.90;;;;;;6232817;22;20393;-83
2024/02/10 09:04:08;;;;;;;0.30;0.30;;;9.50;99.90;;;;;;6256672;22;20401;-81
2024/02/10 09:06:35;;;;;;;0.43;0.43;;;9.50;99.90;;;;;;6231443;22;20020;-82
2024/02/10 09:09:03;;;;;;;0.38;0.38;;;9.50;99.90;;;;;;6232428;22;20061;-83
2024/02/10 09:11:41;;;;;;;0.45;0.45;;;9.50;99.90;;;;;;6256986;22;20012;-82
2024/02/10 09:14:07;;;;;;;0.32;0.32;;;9.50;99.90;;;;;;6253746;22;20072;-83
2024/02/10 09:16:33;;;;;;;;;;;9.50;99.90;;;;;;6250542;22;20016;-81
2024/02/10 09:18:59;;;;;;;0.30;0.30;;;9.50;99.90;;;;;;6224461;22;19919;-84
2024/02/10 09:21:25;;;;;;;;;;;9.60;99.90;;;;;;6199417;22;20023;-83
2024/02/10 09:23:51;;;;;;;1.40;1.40;;;9.60;99.90;;;;;;6202643;22;19911;-83
2024/02/10 09:26:18;;;;;;;0.30;0.30;;;9.50;99.90;;;;;;6202656;22;20012;-82
2024/02/10 09:28:44;;;;;;;0.40;0.40;;;9.60;99.90;;;;;;6201277;22;20015;-84
2024/02/10 09:31:14;;;;;;;0.40;0.40;;;9.60;99.90;;;;;;6224366;22;20019;-79
2024/02/10 09:33:41;;;;;;;0.20;0.20;;;9.70;99.90;;;;;;6278639;22;20069;-82
2024/02/10 09:36:13;;;;;;;0.45;0.45;;;9.80;99.90;;;;;;6226353;22;20015;-83
2024/02/10 09:38:41;;;;;;;0.20;0.20;;;9.90;99.90;;;;;;6229619;22;20035;-83
2024/02/10 09:41:13;;;;;;;0.30;0.30;;;9.90;99.90;;;;;;6229345;22;20087;-82
2024/02/10 09:43:42;;;;;;;0.85;0.85;;;10.00;99.90;;;;;;6228123;22;20451;-81
2024/02/10 09:46:11;;;;;;;0.30;0.30;;;10.10;99.90;;;;;;6227789;22;20022;-82
2024/02/10 09:48:51;;;;;;;0.40;0.40;;;10.30;99.90;;;;;;6229318;22;20023;-84
2024/02/10 09:51:18;;;;;;;0.52;0.52;;;10.20;99.90;;;;;;6227985;22;20015;-81
2024/02/10 09:53:45;;;;;;;0.47;0.47;;;10.30;99.90;;;;;;6229842;22;20011;-83
2024/02/10 09:56:15;;;;;;;0.40;0.40;;;10.30;99.90;;;;;;6229766;22;20023;-82
2024/02/10 09:58:52;;;;;;;0.40;0.40;;;10.30;99.90;;;;;;6229317;22;20046;-83
2024/02/10 10:01:20;;;;;;;0.85;0.85;;;10.30;99.90;;;;;;6226528;22;20014;-83
2024/02/10 10:03:46;;;;;;;0.77;0.77;;;10.40;99.90;;;;;;6198395;22;20015;-84
2024/02/10 10:06:12;;;;;;;0.30;0.30;;;10.40;99.90;;;;;;6203989;22;20059;-82
2024/02/10 10:08:39;;;;;;;0.30;0.30;;;10.40;99.90;;;;;;6230351;22;20567;-82
2024/02/10 10:11:09;;;;;;;0.25;0.25;;;10.60;99.90;;;;;;6205088;22;20022;-84
2024/02/10 10:13:37;;;;;;;0.63;0.63;;;10.60;99.90;;;;;;6231577;22;20063;-83
2024/02/10 10:16:07;;;;;;;0.35;0.35;;;10.70;99.90;;;;;;6230362;22;20022;-82
2024/02/10 10:18:35;;;;;;;0.20;0.20;;;10.80;99.90;;;;;;6207311;22;20019;-80
2024/02/10 10:21:10;;;;;;;0.38;0.38;;;10.90;99.90;;;;;;6207387;22;20046;-83
2024/02/10 10:23:37;;;;;;;2.33;1.73;;;11.00;99.90;;;;;;6208769;22;20011;-82
2024/02/10 10:26:03;;;;;;;0.38;0.38;;;11.10;99.90;;;;;;6230243;22;20011;-80
2024/02/10 10:28:33;;;;;;;2.45;0.55;;;11.10;99.90;;;;;;6229343;22;20137;-82
2024/02/10 10:31:04;;;;;;;0.82;0.60;;;11.20;99.90;;;;;;6228603;22;20015;-82
2024/02/10 10:33:35;;;;;;;1.40;1.40;;;;;;;;;;6208558;22;20331;-81
2024/02/10 10:36:04;;;;;;;0.30;0.30;;;11.20;99.90;;;;;;6207913;22;20058;-83
2024/02/10 10:38:30;;;;;;;0.75;0.75;;;11.20;99.90;;;;;;6206864;22;20069;-82
2024/02/10 10:40:57;;;;;;;0.32;0.32;;;11.20;99.90;;;;;;6229787;22;20011;-82
2024/02/10 10:43:26;;;;;;;0.30;0.30;;;11.20;99.90;;;;;;6203308;22;20011;-86
2024/02/10 10:45:52;;;;;;;0.60;0.60;;;11.20;99.90;;;;;;6204989;22;20107;-81
2024/02/10 10:48:21;;;;;;;0.50;0.50;;;11.20;99.90;;;;;;6231441;22;20035;-82
2024/02/10 10:50:51;;;;;;;0.30;0.30;;;11.10;99.90;;;;;;6223821;22;20102;-80
2024/02/10 10:53:19;;;;;;;0.82;0.80;;;11.20;99.90;;;;;;6223059;22;20542;-80
2024/02/10 10:55:46;;;;;;;0.60;0.60;;;;;;;;;;6224097;22;20019;-80
2024/02/10 10:58:17;;;;;;;0.32;0.32;;;11.30;99.90;;;;;;6222312;22;20027;-80
2024/02/10 11:00:45;;;;;;;0.40;0.40;;;11.30;99.90;;;;;;6222543;22;20169;-81
2024/02/10 11:03:15;;;;;;;0.43;0.43;;;11.50;99.90;;;;;;6225198;22;20015;-83
2024/02/10 11:05:42;;;;;;;0.95;0.85;;;11.50;99.90;;;;;;6203600;22;20023;-86
2024/02/10 11:08:13;;;;;;;0.47;0.47;;;11.90;99.90;;;;;;6201731;22;20026;-83
2024/02/10 11:10:48;;;;;;;0.70;0.70;;;11.60;99.90;;;;;;6228300;22;20339;-82
2024/02/10 11:13:28;;;;;;;0.88;0.60;;;11.10;99.90;;;;;;6227551;22;20135;-81
2024/02/10 11:16:12;;;;;;;0.22;0.22;;;11.80;99.90;;;;;;6225921;22;20312;-80
2024/02/10 11:18:43;;;;;;;0.35;0.30;;;11.90;99.90;;;;;;6226783;22;20458;-81
2024/02/10 11:21:25;;;;;;;0.55;0.55;;;11.90;99.90;;;;;;6228284;22;20014;-83
2024/02/10 11:24:07;;;;;;;0.20;0.20;;;12.10;99.90;;;;;;6227227;22;20018;-82
2024/02/10 11:26:38;;;;;;;0.40;0.40;;;12.10;99.90;;;;;;6225756;22;20015;-82
2024/02/10 11:29:04;;;;;;;0.30;0.30;;;12.10;99.90;;;;;;6225288;22;20026;-82
2024/02/10 11:31:34;;;;;;;0.63;0.63;;;12.20;99.90;;;;;;6202678;22;20019;-84
2024/02/10 11:34:11;;;;;;;0.30;0.30;;;12.30;99.90;;;;;;6225154;22;20021;-80
2024/02/10 11:36:38;;;;;;;0.50;0.50;;;12.30;99.90;;;;;;6203328;22;20016;-83
2024/02/10 11:39:09;;;;;;;0.95;0.88;;;12.40;99.90;;;;;;6204646;22;20019;-82
2024/02/10 11:41:39;;;;;;;0.50;0.50;;;12.50;99.90;;;;;;6228770;22;20023;-82
2024/02/10 11:44:07;;;;;;;0.30;0.30;;;12.50;99.90;;;;;;6203057;22;20015;-81
2024/02/10 11:46:36;;;;;;;0.38;0.38;;;12.50;99.90;;;;;;6228809;22;20091;-84
2024/02/10 11:49:02;;;;;;;0.30;0.30;;;12.50;99.90;;;;;;6224704;22;20066;-82
2024/02/10 11:51:28;;;;;;;0.30;0.30;;;11.90;99.90;;;;;;6176873;22;20023;-85
2024/02/10 11:53:58;;;;;;;0.38;0.38;;;12.60;99.90;;;;;;6200914;22;20015;-81
2024/02/10 11:56:34;;;;;;;0.30;0.30;;;12.60;99.90;;;;;;6251911;22;20015;-83
2024/02/10 11:59:03;;;;;;;0.30;0.30;;;12.70;99.90;;;;;;6224077;22;20020;-82
2024/02/10 12:01:33;;;;;;;0.30;0.30;;;12.70;99.90;;;;;;6199829;22;20321;-80
2024/02/10 12:04:05;;;;;;;0.70;0.70;;;12.80;99.90;;;;;;6226248;22;20059;-83
2024/02/10 12:06:31;;;;;;;0.30;0.30;;;12.90;99.90;;;;;;6195981;23;20499;-82
2024/02/10 12:08:59;;;;;;;0.30;0.30;;;12.90;99.90;;;;;;6221805;23;20047;-84
2024/02/10 12:11:26;;;;;;;0.40;0.40;;;12.60;99.90;;;;;;6245064;23;20039;-80
2024/02/10 12:13:59;;;;;;;0.35;0.35;;;13.10;99.90;;;;;;6219033;23;20020;-84
2024/02/10 12:16:26;;;;;;;0.30;0.30;;;13.10;99.90;;;;;;6173242;23;20016;-83
2024/02/10 12:18:54;;;;;;;0.35;0.35;;;13.30;99.90;;;;;;6196215;23;20048;-82
2024/02/10 12:21:24;;;;;;;0.50;0.50;;;13.20;99.90;;;;;;6170885;23;20011;-82
2024/02/10 12:23:53;;;;;;;0.40;0.40;;;13.20;99.90;;;;;;6221080;23;20027;-81
2024/02/10 12:26:22;;;;;;;0.30;0.30;;;13.10;99.90;;;;;;6247976;22;20012;-83
2024/02/10 12:28:51;;;;;;;0.30;0.30;;;14.70;99.90;;;;;;6197385;23;20056;-84
2024/02/10 12:31:19;;;;;;;0.85;0.85;;;13.10;99.90;;;;;;6221911;23;20023;-81
2024/02/10 12:33:45;;;;;;;0.40;0.40;;;13.10;99.90;;;;;;6222498;23;20051;-82
2024/02/10 12:36:14;;;;;;;0.40;0.40;;;13.20;99.90;;;;;;6195240;23;20020;-85
2024/02/10 12:38:40;;;;;;;0.25;0.25;;;12.90;99.90;;;;;;6197725;23;20016;-82
2024/02/10 12:41:05;;;;;;;0.20;0.20;;;12.90;99.90;;;;;;6219442;23;20012;-83
2024/02/10 12:43:31;;;;;;;0.45;0.45;;;12.90;99.90;;;;;;6245599;23;20120;-81
2024/02/10 12:45:57;;;;;;;0.20;0.20;;;12.90;99.90;;;;;;6218928;23;20016;-81
2024/02/10 12:48:23;;;;;;;0.30;0.30;;;12.90;99.90;;;;;;6194022;23;20016;-84
2024/02/10 12:50:50;;;;;;;0.20;0.20;;;12.80;99.90;;;;;;6191686;23;20107;-83
2024/02/10 12:53:16;;;;;;;1.35;0.40;;;12.70;99.90;;;;;;6196989;23;20027;-84
2024/02/10 12:55:44;;;;;;;0.20;0.20;;;12.80;99.90;;;;;;6220886;23;20451;-85
2024/02/10 12:58:11;;;;;;;0.30;0.30;;;12.70;99.90;;;;;;6196638;23;20016;-82
2024/02/10 13:00:38;;;;;;;0.47;0.47;;;12.80;99.90;;;;;;6195311;23;20012;-82
2024/02/10 13:03:05;;;;;;;0.40;0.40;;;12.80;99.90;;;;;;6244779;23;20016;-83